sensor_id;sensor_type;location;lat;lon;timestamp;P1;durP1;ratioP1;P2;durP2;ratioP2
12758;SDS011;20944;47.048;15.390;2023-04-29T00:01:04;3.50;;;2.40;;
12758;SDS011;20944;47.048;15.390;2023-04-29T00:03:32;6.40;;;2.93;;
12758;SDS011;20944;47.048;15.390;2023-04-29T00:06:01;4.83;;;2.90;;
12758;SDS011;20944;47.048;15.390;2023-04-29T00:08:29;3.77;;;3.10;;
12758;SDS011;20944;47.048;15.390;2023-04-29T00:10:57;4.23;;;3.03;;
12758;SDS011;20944;47.048;15.390;2023-04-29T00:13:26;4.23;;;2.87;;
12758;SDS011;20944;47.048;15.390;2023-04-29T00:15:55;3.73;;;3.33;;
12758;SDS011;20944;47.048;15.390;2023-04-29T00:18:23;3.27;;;2.90;;
12758;SDS011;20944;47.048;15.390;2023-04-29T00:20:52;3.87;;;2.50;;
12758;SDS011;20944;47.048;15.390;2023-04-29T00:23:20;5.00;;;2.73;;
12758;SDS011;20944;47.048;15.390;2023-04-29T00:25:48;7.03;;;3.60;;
12758;SDS011;20944;47.048;15.390;2023-04-29T00:28:18;4.00;;;3.03;;
12758;SDS011;20944;47.048;15.390;2023-04-29T00:30:47;5.80;;;3.60;;
12758;SDS011;20944;47.048;15.390;2023-04-29T00:33:16;9.07;;;4.00;;
12758;SDS011;20944;47.048;15.390;2023-04-29T00:35:45;4.97;;;2.90;;
12758;SDS011;20944;47.048;15.390;2023-04-29T00:38:13;4.23;;;3.07;;
12758;SDS011;20944;47.048;15.390;2023-04-29T00:40:41;4.53;;;2.90;;
12758;SDS011;20944;47.048;15.390;2023-04-29T00:43:10;5.10;;;3.50;;
12758;SDS011;20944;47.048;15.390;2023-04-29T00:45:38;5.27;;;3.73;;
12758;SDS011;20944;47.048;15.390;2023-04-29T00:48:06;3.30;;;2.97;;
12758;SDS011;20944;47.048;15.390;2023-04-29T00:50:36;3.17;;;2.77;;
12758;SDS011;20944;47.048;15.390;2023-04-29T00:53:04;4.13;;;2.93;;
12758;SDS011;20944;47.048;15.390;2023-04-29T00:55:33;5.00;;;3.20;;
12758;SDS011;20944;47.048;15.390;2023-04-29T00:58:03;5.77;;;3.03;;
12758;SDS011;20944;47.048;15.390;2023-04-29T01:00:32;4.50;;;2.90;;
12758;SDS011;20944;47.048;15.390;2023-04-29T01:03:00;4.90;;;3.37;;
12758;SDS011;20944;47.048;15.390;2023-04-29T01:05:29;7.20;;;3.47;;
12758;SDS011;20944;47.048;15.390;2023-04-29T01:08:02;5.57;;;3.20;;
12758;SDS011;20944;47.048;15.390;2023-04-29T01:10:44;5.43;;;4.00;;
12758;SDS011;20944;47.048;15.390;2023-04-29T01:13:23;5.50;;;3.30;;
12758;SDS011;20944;47.048;15.390;2023-04-29T01:15:58;3.93;;;2.60;;
12758;SDS011;20944;47.048;15.390;2023-04-29T01:18:31;3.80;;;2.53;;
12758;SDS011;20944;47.048;15.390;2023-04-29T01:21:03;3.00;;;2.30;;
12758;SDS011;20944;47.048;15.390;2023-04-29T01:23:33;3.60;;;2.10;;
12758;SDS011;20944;47.048;15.390;2023-04-29T01:26:01;5.93;;;2.23;;
12758;SDS011;20944;47.048;15.390;2023-04-29T01:28:36;2.67;;;2.23;;
12758;SDS011;20944;47.048;15.390;2023-04-29T01:31:14;1.97;;;1.70;;
12758;SDS011;20944;47.048;15.390;2023-04-29T01:33:48;2.70;;;2.20;;
12758;SDS011;20944;47.048;15.390;2023-04-29T01:36:25;2.57;;;2.37;;
12758;SDS011;20944;47.048;15.390;2023-04-29T01:39:06;3.47;;;2.07;;
12758;SDS011;20944;47.048;15.390;2023-04-29T01:41:41;3.50;;;2.60;;
12758;SDS011;20944;47.048;15.390;2023-04-29T01:44:12;3.00;;;2.70;;
12758;SDS011;20944;47.048;15.390;2023-04-29T01:46:43;4.03;;;2.77;;
12758;SDS011;20944;47.048;15.390;2023-04-29T01:49:18;5.43;;;2.73;;
12758;SDS011;20944;47.048;15.390;2023-04-29T01:51:47;4.83;;;3.23;;
12758;SDS011;20944;47.048;15.390;2023-04-29T01:54:17;3.80;;;3.10;;
12758;SDS011;20944;47.048;15.390;2023-04-29T01:56:46;4.97;;;3.23;;
12758;SDS011;20944;47.048;15.390;2023-04-29T01:59:14;3.93;;;2.70;;
12758;SDS011;20944;47.048;15.390;2023-04-29T02:01:43;3.03;;;2.73;;
12758;SDS011;20944;47.048;15.390;2023-04-29T02:04:11;4.97;;;3.27;;
12758;SDS011;20944;47.048;15.390;2023-04-29T02:06:39;5.67;;;3.47;;
12758;SDS011;20944;47.048;15.390;2023-04-29T02:09:07;4.20;;;3.27;;
12758;SDS011;20944;47.048;15.390;2023-04-29T02:11:37;4.07;;;3.50;;
12758;SDS011;20944;47.048;15.390;2023-04-29T02:14:05;5.53;;;3.70;;
12758;SDS011;20944;47.048;15.390;2023-04-29T02:16:33;4.93;;;3.10;;
12758;SDS011;20944;47.048;15.390;2023-04-29T02:19:01;4.07;;;3.27;;
12758;SDS011;20944;47.048;15.390;2023-04-29T02:21:29;3.67;;;3.30;;
12758;SDS011;20944;47.048;15.390;2023-04-29T02:23:58;6.93;;;3.37;;
12758;SDS011;20944;47.048;15.390;2023-04-29T02:26:26;5.57;;;4.03;;
12758;SDS011;20944;47.048;15.390;2023-04-29T02:28:56;6.27;;;4.03;;
12758;SDS011;20944;47.048;15.390;2023-04-29T02:31:24;4.67;;;3.20;;
12758;SDS011;20944;47.048;15.390;2023-04-29T02:33:52;5.07;;;3.07;;
12758;SDS011;20944;47.048;15.390;2023-04-29T02:36:21;4.23;;;3.47;;
12758;SDS011;20944;47.048;15.390;2023-04-29T02:38:50;6.30;;;4.00;;
12758;SDS011;20944;47.048;15.390;2023-04-29T02:41:20;4.20;;;3.27;;
12758;SDS011;20944;47.048;15.390;2023-04-29T02:43:49;5.07;;;3.20;;
12758;SDS011;20944;47.048;15.390;2023-04-29T02:46:18;5.90;;;3.60;;
12758;SDS011;20944;47.048;15.390;2023-04-29T02:48:46;6.13;;;3.73;;
12758;SDS011;20944;47.048;15.390;2023-04-29T02:51:15;5.47;;;3.67;;
12758;SDS011;20944;47.048;15.390;2023-04-29T02:53:43;5.67;;;4.07;;
12758;SDS011;20944;47.048;15.390;2023-04-29T02:56:11;6.27;;;4.13;;
12758;SDS011;20944;47.048;15.390;2023-04-29T02:58:39;5.73;;;3.73;;
12758;SDS011;20944;47.048;15.390;2023-04-29T03:01:08;6.53;;;3.77;;
12758;SDS011;20944;47.048;15.390;2023-04-29T03:03:38;5.53;;;3.73;;
12758;SDS011;20944;47.048;15.390;2023-04-29T03:06:06;3.23;;;2.40;;
12758;SDS011;20944;47.048;15.390;2023-04-29T03:08:34;4.70;;;2.57;;
12758;SDS011;20944;47.048;15.390;2023-04-29T03:11:03;3.33;;;2.67;;
12758;SDS011;20944;47.048;15.390;2023-04-29T03:13:31;3.57;;;2.43;;
12758;SDS011;20944;47.048;15.390;2023-04-29T03:15:59;3.63;;;3.13;;
12758;SDS011;20944;47.048;15.390;2023-04-29T03:18:27;3.57;;;2.53;;
12758;SDS011;20944;47.048;15.390;2023-04-29T03:20:57;2.27;;;1.93;;
12758;SDS011;20944;47.048;15.390;2023-04-29T03:23:25;4.93;;;2.53;;
12758;SDS011;20944;47.048;15.390;2023-04-29T03:25:53;2.67;;;2.30;;
12758;SDS011;20944;47.048;15.390;2023-04-29T03:28:22;4.20;;;2.93;;
12758;SDS011;20944;47.048;15.390;2023-04-29T03:30:50;4.53;;;3.17;;
12758;SDS011;20944;47.048;15.390;2023-04-29T03:33:18;3.73;;;2.93;;
12758;SDS011;20944;47.048;15.390;2023-04-29T03:35:46;3.20;;;2.50;;
12758;SDS011;20944;47.048;15.390;2023-04-29T03:38:16;4.17;;;3.00;;
12758;SDS011;20944;47.048;15.390;2023-04-29T03:40:44;3.87;;;2.60;;
12758;SDS011;20944;47.048;15.390;2023-04-29T03:43:12;3.97;;;3.00;;
12758;SDS011;20944;47.048;15.390;2023-04-29T03:45:40;4.40;;;2.40;;
12758;SDS011;20944;47.048;15.390;2023-04-29T03:48:09;5.27;;;2.47;;
12758;SDS011;20944;47.048;15.390;2023-04-29T03:50:37;3.10;;;2.37;;
12758;SDS011;20944;47.048;15.390;2023-04-29T03:53:06;3.37;;;2.73;;
12758;SDS011;20944;47.048;15.390;2023-04-29T03:55:35;3.90;;;2.70;;
12758;SDS011;20944;47.048;15.390;2023-04-29T03:58:03;3.87;;;2.73;;
12758;SDS011;20944;47.048;15.390;2023-04-29T04:00:32;4.20;;;2.57;;
12758;SDS011;20944;47.048;15.390;2023-04-29T04:03:00;3.70;;;2.80;;
12758;SDS011;20944;47.048;15.390;2023-04-29T04:05:31;4.83;;;2.73;;
12758;SDS011;20944;47.048;15.390;2023-04-29T04:07:59;5.43;;;3.10;;
12758;SDS011;20944;47.048;15.390;2023-04-29T04:10:27;4.77;;;3.17;;
12758;SDS011;20944;47.048;15.390;2023-04-29T04:12:57;5.57;;;3.43;;
12758;SDS011;20944;47.048;15.390;2023-04-29T04:15:25;4.43;;;3.10;;
12758;SDS011;20944;47.048;15.390;2023-04-29T04:17:53;7.77;;;3.90;;
12758;SDS011;20944;47.048;15.390;2023-04-29T04:20:21;4.60;;;3.13;;
12758;SDS011;20944;47.048;15.390;2023-04-29T04:22:49;4.00;;;3.60;;
12758;SDS011;20944;47.048;15.390;2023-04-29T04:25:20;3.63;;;2.30;;
12758;SDS011;20944;47.048;15.390;2023-04-29T04:27:48;3.27;;;2.50;;
12758;SDS011;20944;47.048;15.390;2023-04-29T04:30:18;4.50;;;2.77;;
12758;SDS011;20944;47.048;15.390;2023-04-29T04:32:46;6.27;;;3.50;;
12758;SDS011;20944;47.048;15.390;2023-04-29T04:35:14;5.23;;;3.17;;
12758;SDS011;20944;47.048;15.390;2023-04-29T04:37:42;4.57;;;3.30;;
12758;SDS011;20944;47.048;15.390;2023-04-29T04:40:11;3.60;;;3.07;;
12758;SDS011;20944;47.048;15.390;2023-04-29T04:42:40;7.87;;;2.90;;
12758;SDS011;20944;47.048;15.390;2023-04-29T04:45:08;5.87;;;3.43;;
12758;SDS011;20944;47.048;15.390;2023-04-29T04:47:40;4.83;;;3.57;;
12758;SDS011;20944;47.048;15.390;2023-04-29T04:50:08;4.37;;;3.17;;
12758;SDS011;20944;47.048;15.390;2023-04-29T04:52:37;6.03;;;3.83;;
12758;SDS011;20944;47.048;15.390;2023-04-29T04:55:06;4.00;;;3.13;;
12758;SDS011;20944;47.048;15.390;2023-04-29T04:57:35;5.57;;;3.33;;
12758;SDS011;20944;47.048;15.390;2023-04-29T05:00:03;4.03;;;2.90;;
12758;SDS011;20944;47.048;15.390;2023-04-29T05:02:32;4.67;;;3.07;;
12758;SDS011;20944;47.048;15.390;2023-04-29T05:05:03;4.77;;;3.63;;
12758;SDS011;20944;47.048;15.390;2023-04-29T05:07:31;3.80;;;3.37;;
12758;SDS011;20944;47.048;15.390;2023-04-29T05:10:01;4.20;;;2.80;;
12758;SDS011;20944;47.048;15.390;2023-04-29T05:12:30;5.27;;;2.83;;
12758;SDS011;20944;47.048;15.390;2023-04-29T05:14:58;5.30;;;3.23;;
12758;SDS011;20944;47.048;15.390;2023-04-29T05:17:26;4.23;;;2.90;;
12758;SDS011;20944;47.048;15.390;2023-04-29T05:19:55;7.17;;;3.60;;
12758;SDS011;20944;47.048;15.390;2023-04-29T05:22:24;3.90;;;3.50;;
12758;SDS011;20944;47.048;15.390;2023-04-29T05:24:52;4.50;;;3.10;;
12758;SDS011;20944;47.048;15.390;2023-04-29T05:27:28;5.53;;;3.63;;
12758;SDS011;20944;47.048;15.390;2023-04-29T05:29:56;5.20;;;3.57;;
12758;SDS011;20944;47.048;15.390;2023-04-29T05:32:24;3.50;;;3.13;;
12758;SDS011;20944;47.048;15.390;2023-04-29T05:34:52;6.23;;;3.80;;
12758;SDS011;20944;47.048;15.390;2023-04-29T05:37:21;4.63;;;3.60;;
12758;SDS011;20944;47.048;15.390;2023-04-29T05:39:51;4.30;;;3.90;;
12758;SDS011;20944;47.048;15.390;2023-04-29T05:42:19;6.33;;;3.03;;
12758;SDS011;20944;47.048;15.390;2023-04-29T05:44:48;7.10;;;3.60;;
12758;SDS011;20944;47.048;15.390;2023-04-29T05:47:17;4.60;;;3.13;;
12758;SDS011;20944;47.048;15.390;2023-04-29T05:49:45;7.43;;;3.97;;
12758;SDS011;20944;47.048;15.390;2023-04-29T05:52:14;5.43;;;3.53;;
12758;SDS011;20944;47.048;15.390;2023-04-29T05:54:42;4.50;;;3.60;;
12758;SDS011;20944;47.048;15.390;2023-04-29T05:57:11;5.40;;;3.50;;
12758;SDS011;20944;47.048;15.390;2023-04-29T05:59:39;7.30;;;3.47;;
12758;SDS011;20944;47.048;15.390;2023-04-29T06:02:08;4.67;;;3.50;;
12758;SDS011;20944;47.048;15.390;2023-04-29T06:04:37;4.83;;;3.80;;
12758;SDS011;20944;47.048;15.390;2023-04-29T06:07:07;8.03;;;3.23;;
12758;SDS011;20944;47.048;15.390;2023-04-29T06:09:35;6.23;;;3.17;;
12758;SDS011;20944;47.048;15.390;2023-04-29T06:12:04;7.83;;;3.67;;
12758;SDS011;20944;47.048;15.390;2023-04-29T06:14:33;6.03;;;3.97;;
12758;SDS011;20944;47.048;15.390;2023-04-29T06:17:02;5.23;;;3.50;;
12758;SDS011;20944;47.048;15.390;2023-04-29T06:19:30;7.00;;;3.80;;
12758;SDS011;20944;47.048;15.390;2023-04-29T06:21:59;6.10;;;3.37;;
12758;SDS011;20944;47.048;15.390;2023-04-29T06:24:27;4.40;;;3.27;;
12758;SDS011;20944;47.048;15.390;2023-04-29T06:26:55;4.20;;;3.10;;
12758;SDS011;20944;47.048;15.390;2023-04-29T06:29:24;4.83;;;3.30;;
12758;SDS011;20944;47.048;15.390;2023-04-29T06:31:53;3.77;;;3.33;;
12758;SDS011;20944;47.048;15.390;2023-04-29T06:34:21;4.87;;;3.63;;
12758;SDS011;20944;47.048;15.390;2023-04-29T06:36:50;4.57;;;3.20;;
12758;SDS011;20944;47.048;15.390;2023-04-29T06:39:18;3.03;;;2.70;;
12758;SDS011;20944;47.048;15.390;2023-04-29T06:41:46;3.90;;;3.47;;
12758;SDS011;20944;47.048;15.390;2023-04-29T06:44:14;5.60;;;2.90;;
12758;SDS011;20944;47.048;15.390;2023-04-29T06:46:44;4.73;;;2.93;;
12758;SDS011;20944;47.048;15.390;2023-04-29T06:49:14;3.73;;;2.90;;
12758;SDS011;20944;47.048;15.390;2023-04-29T06:51:42;5.13;;;3.17;;
12758;SDS011;20944;47.048;15.390;2023-04-29T06:54:10;4.43;;;3.43;;
12758;SDS011;20944;47.048;15.390;2023-04-29T06:56:38;2.97;;;2.70;;
12758;SDS011;20944;47.048;15.390;2023-04-29T06:59:07;4.80;;;3.23;;
12758;SDS011;20944;47.048;15.390;2023-04-29T07:01:37;4.17;;;2.70;;
12758;SDS011;20944;47.048;15.390;2023-04-29T07:04:09;3.10;;;2.80;;
12758;SDS011;20944;47.048;15.390;2023-04-29T07:06:39;3.20;;;2.60;;
12758;SDS011;20944;47.048;15.390;2023-04-29T07:09:12;4.80;;;2.90;;
12758;SDS011;20944;47.048;15.390;2023-04-29T07:11:40;3.53;;;3.03;;
12758;SDS011;20944;47.048;15.390;2023-04-29T07:14:09;3.97;;;2.37;;
12758;SDS011;20944;47.048;15.390;2023-04-29T07:16:37;3.37;;;2.60;;
12758;SDS011;20944;47.048;15.390;2023-04-29T07:19:05;3.43;;;3.00;;
12758;SDS011;20944;47.048;15.390;2023-04-29T07:21:33;3.17;;;2.87;;
12758;SDS011;20944;47.048;15.390;2023-04-29T07:24:03;3.23;;;2.27;;
12758;SDS011;20944;47.048;15.390;2023-04-29T07:26:32;2.53;;;2.25;;
12758;SDS011;20944;47.048;15.390;2023-04-29T07:29:00;2.92;;;2.47;;
12758;SDS011;20944;47.048;15.390;2023-04-29T07:31:28;2.75;;;2.13;;
12758;SDS011;20944;47.048;15.390;2023-04-29T07:33:57;3.13;;;2.17;;
12758;SDS011;20944;47.048;15.390;2023-04-29T07:36:25;2.97;;;2.25;;
12758;SDS011;20944;47.048;15.390;2023-04-29T07:38:54;3.28;;;2.45;;
12758;SDS011;20944;47.048;15.390;2023-04-29T07:41:23;3.60;;;2.35;;
12758;SDS011;20944;47.048;15.390;2023-04-29T07:43:52;1.65;;;1.55;;
12758;SDS011;20944;47.048;15.390;2023-04-29T07:46:20;1.92;;;1.50;;
12758;SDS011;20944;47.048;15.390;2023-04-29T07:48:48;1.58;;;1.20;;
12758;SDS011;20944;47.048;15.390;2023-04-29T07:51:17;1.42;;;1.33;;
12758;SDS011;20944;47.048;15.390;2023-04-29T07:53:45;2.78;;;1.63;;
12758;SDS011;20944;47.048;15.390;2023-04-29T07:56:13;1.25;;;1.15;;
12758;SDS011;20944;47.048;15.390;2023-04-29T07:58:43;1.10;;;1.00;;
12758;SDS011;20944;47.048;15.390;2023-04-29T08:01:11;1.30;;;1.00;;
12758;SDS011;20944;47.048;15.390;2023-04-29T08:03:41;0.85;;;0.85;;
12758;SDS011;20944;47.048;15.390;2023-04-29T08:06:09;1.65;;;0.70;;
12758;SDS011;20944;47.048;15.390;2023-04-29T08:08:37;2.80;;;1.15;;
12758;SDS011;20944;47.048;15.390;2023-04-29T08:11:06;1.35;;;0.80;;
12758;SDS011;20944;47.048;15.390;2023-04-29T08:13:34;0.63;;;0.60;;
12758;SDS011;20944;47.048;15.390;2023-04-29T08:16:04;2.13;;;0.70;;
12758;SDS011;20944;47.048;15.390;2023-04-29T08:18:33;0.43;;;0.43;;
12758;SDS011;20944;47.048;15.390;2023-04-29T08:21:02;0.45;;;0.45;;
12758;SDS011;20944;47.048;15.390;2023-04-29T08:23:30;0.77;;;0.40;;
12758;SDS011;20944;47.048;15.390;2023-04-29T08:25:59;1.85;;;0.50;;
12758;SDS011;20944;47.048;15.390;2023-04-29T08:28:28;0.60;;;0.60;;
12758;SDS011;20944;47.048;15.390;2023-04-29T08:30:57;1.35;;;0.63;;
12758;SDS011;20944;47.048;15.390;2023-04-29T08:33:26;1.33;;;0.50;;
12758;SDS011;20944;47.048;15.390;2023-04-29T08:35:58;0.70;;;0.60;;
12758;SDS011;20944;47.048;15.390;2023-04-29T08:38:29;3.08;;;0.60;;
12758;SDS011;20944;47.048;15.390;2023-04-29T08:40:57;0.80;;;0.57;;
12758;SDS011;20944;47.048;15.390;2023-04-29T08:43:25;0.55;;;0.40;;
12758;SDS011;20944;47.048;15.390;2023-04-29T08:45:53;2.05;;;0.70;;
12758;SDS011;20944;47.048;15.390;2023-04-29T08:48:24;0.55;;;0.55;;
12758;SDS011;20944;47.048;15.390;2023-04-29T08:50:55;0.82;;;0.57;;
12758;SDS011;20944;47.048;15.390;2023-04-29T08:53:25;0.82;;;0.70;;
12758;SDS011;20944;47.048;15.390;2023-04-29T08:55:53;0.70;;;0.70;;
12758;SDS011;20944;47.048;15.390;2023-04-29T08:58:24;0.52;;;0.52;;
12758;SDS011;20944;47.048;15.390;2023-04-29T09:00:56;0.68;;;0.68;;
12758;SDS011;20944;47.048;15.390;2023-04-29T09:03:28;2.67;;;0.77;;
12758;SDS011;20944;47.048;15.390;2023-04-29T09:06:01;1.00;;;0.70;;
12758;SDS011;20944;47.048;15.390;2023-04-29T09:08:31;0.52;;;0.50;;
12758;SDS011;20944;47.048;15.390;2023-04-29T09:11:00;1.05;;;0.60;;
12758;SDS011;20944;47.048;15.390;2023-04-29T09:13:29;1.38;;;0.50;;
12758;SDS011;20944;47.048;15.390;2023-04-29T09:15:58;0.45;;;0.30;;
12758;SDS011;20944;47.048;15.390;2023-04-29T09:18:44;0.40;;;0.40;;
12758;SDS011;20944;47.048;15.390;2023-04-29T09:21:14;0.50;;;0.50;;
12758;SDS011;20944;47.048;15.390;2023-04-29T09:23:48;2.38;;;0.60;;
12758;SDS011;20944;47.048;15.390;2023-04-29T09:26:18;0.47;;;0.47;;
12758;SDS011;20944;47.048;15.390;2023-04-29T09:28:48;3.00;;;0.60;;
12758;SDS011;20944;47.048;15.390;2023-04-29T09:31:33;0.63;;;0.60;;
12758;SDS011;20944;47.048;15.390;2023-04-29T09:34:03;0.93;;;0.65;;
12758;SDS011;20944;47.048;15.390;2023-04-29T09:36:35;0.73;;;0.73;;
12758;SDS011;20944;47.048;15.390;2023-04-29T09:39:06;0.88;;;0.70;;
12758;SDS011;20944;47.048;15.390;2023-04-29T09:41:41;0.60;;;0.60;;
12758;SDS011;20944;47.048;15.390;2023-04-29T09:44:23;0.60;;;0.60;;
12758;SDS011;20944;47.048;15.390;2023-04-29T09:46:55;1.10;;;0.40;;
12758;SDS011;20944;47.048;15.390;2023-04-29T09:49:25;0.40;;;0.40;;
12758;SDS011;20944;47.048;15.390;2023-04-29T09:51:55;0.40;;;0.40;;
12758;SDS011;20944;47.048;15.390;2023-04-29T09:54:26;0.50;;;0.50;;
12758;SDS011;20944;47.048;15.390;2023-04-29T09:56:56;0.63;;;0.50;;
12758;SDS011;20944;47.048;15.390;2023-04-29T09:59:25;0.50;;;0.50;;
12758;SDS011;20944;47.048;15.390;2023-04-29T10:01:54;1.90;;;0.70;;
12758;SDS011;20944;47.048;15.390;2023-04-29T10:04:25;2.60;;;1.10;;
12758;SDS011;20944;47.048;15.390;2023-04-29T10:06:55;1.05;;;0.60;;
12758;SDS011;20944;47.048;15.390;2023-04-29T10:09:23;9.80;;;2.78;;
12758;SDS011;20944;47.048;15.390;2023-04-29T10:11:52;0.40;;;0.40;;
12758;SDS011;20944;47.048;15.390;2023-04-29T10:14:21;0.88;;;0.50;;
12758;SDS011;20944;47.048;15.390;2023-04-29T10:16:53;2.15;;;0.65;;
12758;SDS011;20944;47.048;15.390;2023-04-29T10:19:32;0.50;;;0.50;;
12758;SDS011;20944;47.048;15.390;2023-04-29T10:22:04;0.93;;;0.60;;
12758;SDS011;20944;47.048;15.390;2023-04-29T10:24:36;0.60;;;0.60;;
12758;SDS011;20944;47.048;15.390;2023-04-29T10:27:06;0.88;;;0.57;;
12758;SDS011;20944;47.048;15.390;2023-04-29T10:29:35;0.45;;;0.45;;
12758;SDS011;20944;47.048;15.390;2023-04-29T10:32:06;0.90;;;0.50;;
12758;SDS011;20944;47.048;15.390;2023-04-29T10:34:38;0.50;;;0.50;;
12758;SDS011;20944;47.048;15.390;2023-04-29T10:37:06;2.25;;;0.50;;
12758;SDS011;20944;47.048;15.390;2023-04-29T10:39:39;0.40;;;0.40;;
12758;SDS011;20944;47.048;15.390;2023-04-29T10:42:15;0.63;;;0.63;;
12758;SDS011;20944;47.048;15.390;2023-04-29T10:53:29;0.90;;;0.35;;
12758;SDS011;20944;47.048;15.390;2023-04-29T10:55:58;0.60;;;0.45;;
12758;SDS011;20944;47.048;15.390;2023-04-29T10:58:36;0.50;;;0.50;;
12758;SDS011;20944;47.048;15.390;2023-04-29T11:01:06;0.57;;;0.57;;
12758;SDS011;20944;47.048;15.390;2023-04-29T11:03:46;0.50;;;0.50;;
12758;SDS011;20944;47.048;15.390;2023-04-29T11:06:23;0.50;;;0.50;;
12758;SDS011;20944;47.048;15.390;2023-04-29T11:09:01;0.50;;;0.50;;
12758;SDS011;20944;47.048;15.390;2023-04-29T11:11:40;0.45;;;0.45;;
12758;SDS011;20944;47.048;15.390;2023-04-29T11:14:26;0.45;;;0.45;;
12758;SDS011;20944;47.048;15.390;2023-04-29T11:16:58;0.63;;;0.60;;
12758;SDS011;20944;47.048;15.390;2023-04-29T11:19:31;0.50;;;0.50;;
12758;SDS011;20944;47.048;15.390;2023-04-29T11:22:10;0.60;;;0.50;;
12758;SDS011;20944;47.048;15.390;2023-04-29T11:24:49;1.20;;;0.60;;
12758;SDS011;20944;47.048;15.390;2023-04-29T11:27:19;0.50;;;0.50;;
12758;SDS011;20944;47.048;15.390;2023-04-29T11:32:36;0.90;;;0.35;;
12758;SDS011;20944;47.048;15.390;2023-04-29T11:41:11;1.48;;;0.60;;
12758;SDS011;20944;47.048;15.390;2023-04-29T11:43:41;0.50;;;0.30;;
12758;SDS011;20944;47.048;15.390;2023-04-29T11:46:12;1.20;;;0.30;;
12758;SDS011;20944;47.048;15.390;2023-04-29T11:48:44;0.30;;;0.30;;
12758;SDS011;20944;47.048;15.390;2023-04-29T11:51:14;0.80;;;0.43;;
12758;SDS011;20944;47.048;15.390;2023-04-29T11:53:43;1.45;;;0.50;;
12758;SDS011;20944;47.048;15.390;2023-04-29T11:56:13;0.30;;;0.30;;
12758;SDS011;20944;47.048;15.390;2023-04-29T11:58:42;0.45;;;0.45;;
12758;SDS011;20944;47.048;15.390;2023-04-29T12:01:11;1.27;;;0.30;;
12758;SDS011;20944;47.048;15.390;2023-04-29T12:03:39;0.40;;;0.40;;
12758;SDS011;20944;47.048;15.390;2023-04-29T12:06:12;0.50;;;0.40;;
12758;SDS011;20944;47.048;15.390;2023-04-29T12:08:40;0.30;;;0.30;;
12758;SDS011;20944;47.048;15.390;2023-04-29T12:11:08;0.75;;;0.30;;
12758;SDS011;20944;47.048;15.390;2023-04-29T12:13:38;0.30;;;0.30;;
12758;SDS011;20944;47.048;15.390;2023-04-29T12:16:07;0.25;;;0.20;;
12758;SDS011;20944;47.048;15.390;2023-04-29T12:18:36;0.30;;;0.30;;
12758;SDS011;20944;47.048;15.390;2023-04-29T12:21:04;0.85;;;0.40;;
12758;SDS011;20944;47.048;15.390;2023-04-29T12:23:33;1.17;;;0.40;;
12758;SDS011;20944;47.048;15.390;2023-04-29T12:26:03;0.35;;;0.35;;
12758;SDS011;20944;47.048;15.390;2023-04-29T12:28:32;0.40;;;0.40;;
12758;SDS011;20944;47.048;15.390;2023-04-29T12:31:01;0.52;;;0.30;;
12758;SDS011;20944;47.048;15.390;2023-04-29T12:33:30;0.30;;;0.30;;
12758;SDS011;20944;47.048;15.390;2023-04-29T12:35:58;0.30;;;0.30;;
12758;SDS011;20944;47.048;15.390;2023-04-29T12:38:28;0.32;;;0.32;;
12758;SDS011;20944;47.048;15.390;2023-04-29T12:40:58;0.35;;;0.35;;
12758;SDS011;20944;47.048;15.390;2023-04-29T12:43:27;0.40;;;0.35;;
12758;SDS011;20944;47.048;15.390;2023-04-29T12:45:59;0.75;;;0.40;;
12758;SDS011;20944;47.048;15.390;2023-04-29T12:48:30;0.40;;;0.40;;
12758;SDS011;20944;47.048;15.390;2023-04-29T12:50:59;0.40;;;0.40;;
12758;SDS011;20944;47.048;15.390;2023-04-29T12:53:28;0.30;;;0.30;;
12758;SDS011;20944;47.048;15.390;2023-04-29T12:55:57;0.30;;;0.30;;
12758;SDS011;20944;47.048;15.390;2023-04-29T12:58:27;0.30;;;0.30;;
12758;SDS011;20944;47.048;15.390;2023-04-29T13:00:56;0.40;;;0.30;;
12758;SDS011;20944;47.048;15.390;2023-04-29T13:03:24;0.60;;;0.40;;
12758;SDS011;20944;47.048;15.390;2023-04-29T13:05:55;0.30;;;0.30;;
12758;SDS011;20944;47.048;15.390;2023-04-29T13:08:24;1.52;;;0.40;;
12758;SDS011;20944;47.048;15.390;2023-04-29T13:10:52;0.40;;;0.40;;
12758;SDS011;20944;47.048;15.390;2023-04-29T13:15:54;0.40;;;0.40;;
12758;SDS011;20944;47.048;15.390;2023-04-29T13:23:54;0.80;;;0.40;;
12758;SDS011;20944;47.048;15.390;2023-04-29T13:26:22;0.40;;;0.40;;
12758;SDS011;20944;47.048;15.390;2023-04-29T13:28:52;0.70;;;0.70;;
12758;SDS011;20944;47.048;15.390;2023-04-29T13:31:20;0.40;;;0.40;;
12758;SDS011;20944;47.048;15.390;2023-04-29T13:33:48;0.40;;;0.40;;
12758;SDS011;20944;47.048;15.390;2023-04-29T13:36:19;0.20;;;0.20;;
12758;SDS011;20944;47.048;15.390;2023-04-29T13:38:48;0.40;;;0.40;;
12758;SDS011;20944;47.048;15.390;2023-04-29T13:41:22;0.30;;;0.30;;
12758;SDS011;20944;47.048;15.390;2023-04-29T13:43:52;0.43;;;0.30;;
12758;SDS011;20944;47.048;15.390;2023-04-29T13:46:23;0.68;;;0.40;;
12758;SDS011;20944;47.048;15.390;2023-04-29T13:54:24;0.30;;;0.30;;
12758;SDS011;20944;47.048;15.390;2023-04-29T14:10:19;0.30;;;0.30;;
12758;SDS011;20944;47.048;15.390;2023-04-29T14:12:47;1.13;;;0.55;;
12758;SDS011;20944;47.048;15.390;2023-04-29T14:15:15;0.32;;;0.20;;
12758;SDS011;20944;47.048;15.390;2023-04-29T14:17:43;0.20;;;0.20;;
12758;SDS011;20944;47.048;15.390;2023-04-29T14:20:12;0.40;;;0.40;;
12758;SDS011;20944;47.048;15.390;2023-04-29T14:22:40;0.17;;;0.17;;
12758;SDS011;20944;47.048;15.390;2023-04-29T14:25:09;0.20;;;0.20;;
12758;SDS011;20944;47.048;15.390;2023-04-29T14:27:39;0.17;;;0.17;;
12758;SDS011;20944;47.048;15.390;2023-04-29T14:30:07;0.20;;;0.20;;
12758;SDS011;20944;47.048;15.390;2023-04-29T14:32:36;0.20;;;0.20;;
12758;SDS011;20944;47.048;15.390;2023-04-29T14:37:46;0.28;;;0.20;;
12758;SDS011;20944;47.048;15.390;2023-04-29T14:48:58;0.10;;;0.10;;
12758;SDS011;20944;47.048;15.390;2023-04-29T14:51:26;0.10;;;0.10;;
12758;SDS011;20944;47.048;15.390;2023-04-29T14:53:55;0.20;;;0.20;;
12758;SDS011;20944;47.048;15.390;2023-04-29T14:56:23;0.20;;;0.20;;
12758;SDS011;20944;47.048;15.390;2023-04-29T14:58:51;0.20;;;0.20;;
12758;SDS011;20944;47.048;15.390;2023-04-29T15:01:19;0.30;;;0.30;;
12758;SDS011;20944;47.048;15.390;2023-04-29T15:03:48;0.25;;;0.25;;
12758;SDS011;20944;47.048;15.390;2023-04-29T15:06:17;0.30;;;0.30;;
12758;SDS011;20944;47.048;15.390;2023-04-29T15:08:46;0.55;;;0.20;;
12758;SDS011;20944;47.048;15.390;2023-04-29T15:11:14;0.40;;;0.40;;
12758;SDS011;20944;47.048;15.390;2023-04-29T15:13:42;1.58;;;0.50;;
12758;SDS011;20944;47.048;15.390;2023-04-29T15:16:10;0.30;;;0.30;;
12758;SDS011;20944;47.048;15.390;2023-04-29T15:18:39;0.40;;;0.40;;
12758;SDS011;20944;47.048;15.390;2023-04-29T15:21:11;0.40;;;0.40;;
12758;SDS011;20944;47.048;15.390;2023-04-29T15:23:40;0.30;;;0.30;;
12758;SDS011;20944;47.048;15.390;2023-04-29T15:26:09;0.40;;;0.30;;
12758;SDS011;20944;47.048;15.390;2023-04-29T15:28:37;0.40;;;0.40;;
12758;SDS011;20944;47.048;15.390;2023-04-29T15:31:05;0.40;;;0.40;;
12758;SDS011;20944;47.048;15.390;2023-04-29T15:33:34;0.30;;;0.30;;
12758;SDS011;20944;47.048;15.390;2023-04-29T15:36:02;0.50;;;0.50;;
12758;SDS011;20944;47.048;15.390;2023-04-29T15:38:30;0.50;;;0.50;;
12758;SDS011;20944;47.048;15.390;2023-04-29T15:41:00;0.40;;;0.40;;
12758;SDS011;20944;47.048;15.390;2023-04-29T15:43:29;0.40;;;0.40;;